Time;durP1;ratioP1;P1;durP2;ratioP2;P2;SDS_P1;SDS_P2;PMS_P1;PMS_P2;Temp;Humidity;BMP_temperature;BMP_pressure;BME280_temperature;BME280_humidity;BME280_pressure;Samples;Min_cycle;Max_cycle;Signal;HPM_P1;HPM_P2
2024/03/22 00:00:19;;;;;;;14.27;10.10;;;7.60;99.90;;;;;;4949937;28;20026;-83
2024/03/22 00:02:45;;;;;;;14.38;10.15;;;7.60;99.90;;;;;;4971252;28;20027;-84
2024/03/22 00:05:10;;;;;;;14.95;9.73;;;7.60;99.90;;;;;;4945769;28;20030;-84
2024/03/22 00:07:37;;;;;;;15.85;10.68;;;7.60;99.90;;;;;;4950411;28;20031;-83
2024/03/22 00:10:02;;;;;;;12.90;9.68;;;7.70;99.90;;;;;;4968952;28;20115;-83
2024/03/22 00:12:28;;;;;;;18.30;11.73;;;7.60;99.90;;;;;;4937019;28;20030;-81
2024/03/22 00:14:54;;;;;;;14.27;10.43;;;7.60;99.90;;;;;;4968076;28;20062;-82
2024/03/22 00:17:20;;;;;;;16.60;11.00;;;7.60;99.90;;;;;;4948206;28;20033;-82
2024/03/22 00:19:46;;;;;;;16.58;11.25;;;7.60;99.90;;;;;;4950024;28;20042;-83
2024/03/22 00:22:11;;;;;;;17.23;10.65;;;7.60;99.90;;;;;;4968028;28;20033;-82
2024/03/22 00:24:37;;;;;;;15.68;11.38;;;7.60;99.90;;;;;;4948891;28;20061;-83
2024/03/22 00:27:02;;;;;;;23.40;11.38;;;7.60;99.90;;;;;;4955911;28;20073;-86
2024/03/22 00:29:28;;;;;;;15.85;10.95;;;7.70;99.90;;;;;;4971654;28;20034;-84
2024/03/22 00:31:53;;;;;;;16.05;11.05;;;7.60;99.90;;;;;;4943032;28;20030;-84
2024/03/22 00:34:19;;;;;;;17.15;10.88;;;7.70;99.90;;;;;;4973743;28;20034;-82
2024/03/22 00:36:45;;;;;;;17.23;11.18;;;7.60;99.90;;;;;;4955645;28;20402;-84
2024/03/22 00:39:12;;;;;;;17.25;10.88;;;7.60;99.90;;;;;;4946870;28;20018;-83
2024/03/22 00:41:38;;;;;;;16.38;12.27;;;7.70;99.90;;;;;;4968219;28;20030;-83
2024/03/22 00:44:03;;;;;;;14.73;11.10;;;7.70;99.90;;;;;;4948225;28;20023;-82
2024/03/22 00:46:29;;;;;;;17.77;10.60;;;7.70;99.90;;;;;;4955757;28;20157;-84
2024/03/22 00:48:54;;;;;;;16.63;11.20;;;7.80;99.90;;;;;;4978158;28;20031;-83
2024/03/22 00:51:20;;;;;;;17.27;11.18;;;7.70;99.90;;;;;;4944963;28;20038;-83
2024/03/22 00:53:45;;;;;;;16.48;11.25;;;7.80;99.90;;;;;;4963818;28;20037;-83
2024/03/22 00:56:11;;;;;;;20.77;12.13;;;7.80;99.90;;;;;;4933722;28;20023;-83
2024/03/22 00:58:37;;;;;;;20.88;11.65;;;7.80;99.90;;;;;;4937840;28;20026;-84
2024/03/22 01:01:02;;;;;;;15.95;11.13;;;7.80;99.90;;;;;;4967674;28;20034;-84
2024/03/22 01:03:28;;;;;;;14.63;10.52;;;7.80;99.90;;;;;;4934630;28;20042;-83
2024/03/22 01:05:54;;;;;;;16.15;11.73;;;7.80;99.90;;;;;;4943989;28;20022;-83
2024/03/22 01:08:19;;;;;;;19.08;12.77;;;7.80;99.90;;;;;;4922235;28;20517;-83
2024/03/22 01:10:45;;;;;;;17.52;11.80;;;7.80;99.90;;;;;;4910447;28;20816;-84
2024/03/22 01:13:10;;;;;;;17.10;11.27;;;7.80;99.90;;;;;;4946791;28;20034;-84
2024/03/22 01:15:36;;;;;;;18.05;11.52;;;7.90;99.90;;;;;;4925840;28;20026;-84
2024/03/22 01:18:02;;;;;;;16.50;11.65;;;7.90;99.90;;;;;;4923108;28;20053;-84
2024/03/22 01:20:27;;;;;;;19.58;12.15;;;7.90;99.90;;;;;;4977316;28;20026;-84
2024/03/22 01:22:53;;;;;;;18.45;11.38;;;7.90;99.90;;;;;;4914772;28;20030;-83
2024/03/22 01:25:18;;;;;;;17.65;10.65;;;7.90;99.90;;;;;;4966197;28;20402;-83
2024/03/22 01:27:44;;;;;;;16.05;11.68;;;7.90;99.90;;;;;;4920423;28;20034;-83
2024/03/22 01:30:10;;;;;;;17.20;11.52;;;7.90;99.90;;;;;;4911450;28;20056;-83
2024/03/22 01:32:36;;;;;;;17.45;11.07;;;7.90;99.90;;;;;;4966983;28;20490;-83
2024/03/22 01:35:02;;;;;;;19.65;11.10;;;7.90;99.90;;;;;;4929862;28;20090;-83
2024/03/22 01:37:27;;;;;;;16.50;11.60;;;7.80;99.90;;;;;;4939692;28;20030;-82
2024/03/22 01:39:53;;;;;;;21.48;13.07;;;7.90;99.90;;;;;;4950737;28;20522;-82
2024/03/22 01:42:18;;;;;;;16.65;11.90;;;7.80;99.90;;;;;;4936560;28;21233;-82
2024/03/22 01:44:44;;;;;;;17.35;12.18;;;7.80;99.90;;;;;;4950519;28;20044;-83
2024/03/22 01:47:10;;;;;;;17.77;11.82;;;7.90;99.90;;;;;;4918631;28;20756;-83
2024/03/22 01:49:36;;;;;;;16.83;11.50;;;7.90;99.90;;;;;;4928388;28;20022;-83
2024/03/22 01:52:03;;;;;;;18.20;12.82;;;7.90;99.90;;;;;;4971908;28;20026;-85
2024/03/22 01:54:29;;;;;;;18.13;12.25;;;7.90;99.90;;;;;;4928300;28;20117;-83
2024/03/22 01:56:56;;;;;;;16.27;11.63;;;7.90;99.90;;;;;;4953873;28;20097;-82
2024/03/22 01:59:22;;;;;;;21.30;12.65;;;7.90;99.90;;;;;;4948176;28;20034;-83
2024/03/22 02:01:49;;;;;;;16.10;11.88;;;7.90;99.90;;;;;;4942161;28;20959;-84
2024/03/22 02:04:14;;;;;;;20.33;12.13;;;8.00;99.90;;;;;;4979163;28;20062;-82
2024/03/22 02:06:40;;;;;;;15.07;11.70;;;8.00;99.90;;;;;;4921401;28;20072;-83
2024/03/22 02:09:08;;;;;;;20.55;12.98;;;8.00;99.90;;;;;;4960088;28;20041;-84
2024/03/22 02:11:36;;;;;;;19.92;12.48;;;7.90;99.90;;;;;;4958628;28;20026;-84
2024/03/22 02:14:01;;;;;;;18.52;13.23;;;8.00;99.90;;;;;;4931294;28;20030;-83
2024/03/22 02:16:27;;;;;;;18.58;13.05;;;8.00;99.90;;;;;;4946629;28;20033;-83
2024/03/22 02:18:52;;;;;;;19.08;13.20;;;8.00;99.90;;;;;;4985143;28;20105;-83
2024/03/22 02:21:18;;;;;;;19.67;12.82;;;8.10;99.90;;;;;;4974257;28;20023;-83
2024/03/22 02:23:43;;;;;;;19.77;13.25;;;8.10;99.90;;;;;;4964873;28;20061;-84
2024/03/22 02:26:09;;;;;;;19.30;12.85;;;8.10;99.90;;;;;;4954624;28;20038;-83
2024/03/22 02:28:35;;;;;;;18.73;13.35;;;8.10;99.90;;;;;;4954494;28;20507;-84
2024/03/22 02:31:02;;;;;;;22.40;14.25;;;8.10;99.90;;;;;;4948477;28;20038;-84
2024/03/22 02:33:28;;;;;;;20.42;13.55;;;8.10;99.90;;;;;;4944799;28;20038;-84
2024/03/22 02:35:53;;;;;;;18.27;12.32;;;8.10;99.90;;;;;;4945108;28;20027;-84
2024/03/22 02:38:19;;;;;;;21.83;13.70;;;8.10;99.90;;;;;;4950633;28;20026;-83
2024/03/22 02:40:46;;;;;;;17.65;13.07;;;8.10;99.90;;;;;;4930132;28;20030;-84
2024/03/22 02:43:12;;;;;;;20.58;13.88;;;8.10;99.90;;;;;;4939767;28;20034;-84
2024/03/22 02:45:38;;;;;;;22.15;13.30;;;8.10;99.90;;;;;;4946495;28;20032;-84
2024/03/22 02:48:04;;;;;;;20.52;13.93;;;8.10;99.90;;;;;;4918330;28;20260;-83
2024/03/22 02:50:37;;;;;;;22.48;14.13;;;8.10;99.90;;;;;;4922432;28;20072;-84
2024/03/22 02:53:04;;;;;;;23.55;13.80;;;8.10;99.90;;;;;;4900081;28;20061;-84
2024/03/22 02:55:29;;;;;;;21.73;14.95;;;8.10;99.90;;;;;;4918386;28;20113;-84
2024/03/22 02:57:57;;;;;;;20.38;15.43;;;8.10;99.90;;;;;;4928498;28;20129;-83
2024/03/22 03:00:22;;;;;;;20.40;14.02;;;8.10;99.90;;;;;;4941538;28;20092;-84
2024/03/22 03:02:48;;;;;;;23.52;15.27;;;8.10;99.90;;;;;;4916226;28;22332;-84
2024/03/22 03:05:14;;;;;;;25.70;16.38;;;8.10;99.90;;;;;;4941844;28;20029;-83
2024/03/22 03:07:40;;;;;;;22.05;15.38;;;8.20;99.90;;;;;;4922163;28;20145;-84
2024/03/22 03:10:06;;;;;;;24.20;17.42;;;8.20;99.90;;;;;;4901304;28;20475;-85
2024/03/22 03:12:32;;;;;;;24.33;16.88;;;8.20;99.90;;;;;;4953085;28;20061;-85
2024/03/22 03:14:58;;;;;;;26.95;17.67;;;8.20;99.90;;;;;;4920907;28;20043;-85
2024/03/22 03:17:23;;;;;;;25.85;16.77;;;8.20;99.90;;;;;;4954741;28;20034;-86
2024/03/22 03:19:49;;;;;;;23.23;16.98;;;8.20;99.90;;;;;;4882526;28;20064;-85
2024/03/22 03:22:15;;;;;;;30.13;18.13;;;8.20;99.90;;;;;;4871503;28;21428;-85
2024/03/22 03:24:40;;;;;;;23.13;16.52;;;8.20;99.90;;;;;;4946158;28;20022;-85
2024/03/22 03:27:06;;;;;;;28.52;19.02;;;8.20;99.90;;;;;;4886353;28;20612;-84
2024/03/22 03:29:32;;;;;;;24.25;17.23;;;8.20;99.90;;;;;;4884552;28;20034;-84
2024/03/22 03:31:58;;;;;;;28.45;18.40;;;8.30;99.90;;;;;;4931806;28;20026;-84
2024/03/22 03:34:23;;;;;;;28.10;18.58;;;8.30;99.90;;;;;;4890212;28;20023;-82
2024/03/22 03:36:49;;;;;;;27.13;18.15;;;8.30;99.90;;;;;;4888592;28;20085;-82
2024/03/22 03:39:14;;;;;;;28.15;18.50;;;8.30;99.90;;;;;;4899021;28;20146;-82
2024/03/22 03:41:40;;;;;;;32.25;19.77;;;8.30;99.90;;;;;;4900133;28;20573;-83
2024/03/22 03:44:05;;;;;;;26.23;17.70;;;8.30;99.90;;;;;;4930025;28;20022;-84
2024/03/22 03:46:31;;;;;;;26.65;18.30;;;8.30;99.90;;;;;;4880650;28;20027;-83
2024/03/22 03:48:57;;;;;;;29.27;18.73;;;8.30;99.90;;;;;;4912883;28;20457;-83
2024/03/22 03:51:22;;;;;;;27.45;19.45;;;8.40;99.90;;;;;;4875853;28;21621;-83
2024/03/22 03:53:48;;;;;;;28.42;18.85;;;8.40;99.90;;;;;;4882060;28;21506;-84
2024/03/22 03:56:13;;;;;;;30.77;19.92;;;8.40;99.90;;;;;;4930284;28;20022;-84
2024/03/22 03:58:39;;;;;;;32.92;20.02;;;8.30;99.90;;;;;;4876555;28;20019;-84
2024/03/22 04:01:08;;;;;;;35.72;21.77;;;8.30;99.90;;;;;;4880554;28;20042;-84
2024/03/22 04:03:35;;;;;;;29.50;20.02;;;8.40;99.90;;;;;;4887719;28;20059;-84
2024/03/22 04:06:00;;;;;;;27.77;19.52;;;8.40;99.90;;;;;;4889144;28;20022;-84
2024/03/22 04:08:27;;;;;;;29.02;20.95;;;8.40;99.90;;;;;;4842038;28;20201;-82
2024/03/22 04:10:58;;;;;;;30.85;21.10;;;8.40;99.90;;;;;;4892808;28;20037;-84
2024/03/22 04:13:25;;;;;;;30.38;20.48;;;8.40;99.90;;;;;;4872150;28;20034;-84
2024/03/22 04:15:51;;;;;;;30.95;21.15;;;8.40;99.90;;;;;;4896414;28;20118;-83
2024/03/22 04:18:16;;;;;;;37.40;24.25;;;8.40;99.90;;;;;;4843878;28;20018;-84
2024/03/22 04:20:43;;;;;;;35.33;22.65;;;8.40;99.90;;;;;;4890776;28;20037;-83
2024/03/22 04:23:09;;;;;;;37.22;23.00;;;8.50;99.90;;;;;;4915136;28;20039;-83
2024/03/22 04:25:35;;;;;;;35.28;23.55;;;8.50;99.90;;;;;;4802389;28;20107;-84
2024/03/22 04:28:00;;;;;;;33.42;21.98;;;8.50;99.90;;;;;;4825674;28;20023;-82
2024/03/22 04:30:26;;;;;;;33.05;22.40;;;8.50;99.90;;;;;;4933439;28;20252;-82
2024/03/22 04:32:51;;;;;;;31.55;22.52;;;8.50;99.90;;;;;;4893236;28;20182;-84
2024/03/22 04:35:17;;;;;;;34.90;23.30;;;8.50;99.90;;;;;;4936850;28;20030;-84
2024/03/22 04:37:42;;;;;;;33.45;22.48;;;8.50;99.90;;;;;;4878730;28;20038;-83
2024/03/22 04:40:11;;;;;;;36.33;24.27;;;8.50;99.90;;;;;;4869299;28;20026;-83
2024/03/22 04:42:37;;;;;;;35.75;23.48;;;8.50;99.90;;;;;;4929611;28;20054;-84
2024/03/22 04:45:02;;;;;;;36.95;24.08;;;8.60;99.90;;;;;;4868887;28;20654;-82
2024/03/22 04:47:28;;;;;;;37.90;24.13;;;8.60;99.90;;;;;;4897035;28;20030;-82
2024/03/22 04:49:54;;;;;;;38.58;25.55;;;8.60;99.90;;;;;;4890924;28;20082;-84
2024/03/22 04:52:19;;;;;;;36.63;24.30;;;8.60;99.90;;;;;;4844096;28;21548;-84
2024/03/22 04:54:45;;;;;;;37.92;24.05;;;8.60;99.90;;;;;;4905724;28;20030;-84
2024/03/22 04:57:13;;;;;;;41.25;24.65;;;8.60;99.90;;;;;;4827498;28;20031;-82
2024/03/22 04:59:38;;;;;;;45.13;27.52;;;8.60;99.90;;;;;;4892258;28;20394;-84
2024/03/22 05:02:04;;;;;;;37.40;25.10;;;8.60;99.90;;;;;;4935374;28;20034;-84
2024/03/22 05:04:31;;;;;;;38.63;26.45;;;8.70;99.90;;;;;;4861768;28;20026;-84
2024/03/22 05:07:00;;;;;;;41.80;25.58;;;8.70;99.90;;;;;;4886827;28;20679;-82
2024/03/22 05:09:25;;;;;;;37.67;24.52;;;8.70;99.90;;;;;;4922126;28;20046;-84
2024/03/22 05:11:51;;;;;;;41.17;25.55;;;8.60;99.90;;;;;;4882378;28;21614;-84
2024/03/22 05:14:19;;;;;;;41.67;26.63;;;8.70;99.90;;;;;;4871375;28;20490;-85
2024/03/22 05:16:44;;;;;;;39.47;24.80;;;8.60;99.90;;;;;;4884859;28;20011;-84
2024/03/22 05:19:10;;;;;;;38.97;25.40;;;8.70;99.90;;;;;;4845600;28;20431;-84
2024/03/22 05:21:35;;;;;;;41.38;26.45;;;8.70;99.90;;;;;;4934544;28;20093;-84
2024/03/22 05:24:01;;;;;;;40.22;26.90;;;8.60;99.90;;;;;;4880652;28;20505;-85
2024/03/22 05:26:27;;;;;;;39.47;26.25;;;8.70;99.90;;;;;;4917227;28;20057;-83
2024/03/22 05:28:52;;;;;;;41.22;26.08;;;8.70;99.90;;;;;;4907776;28;20041;-84
2024/03/22 05:31:18;;;;;;;39.80;26.25;;;8.70;99.90;;;;;;4873453;28;21485;-84
2024/03/22 05:33:43;;;;;;;40.88;27.20;;;8.70;99.90;;;;;;4911744;28;20105;-83
2024/03/22 05:36:09;;;;;;;40.00;27.80;;;8.70;99.90;;;;;;4862863;28;20045;-84
2024/03/22 05:38:34;;;;;;;39.85;26.55;;;8.70;99.90;;;;;;4895790;28;20497;-84
2024/03/22 05:41:04;;;;;;;40.85;26.88;;;8.80;99.90;;;;;;4917648;28;20117;-83
2024/03/22 05:43:29;;;;;;;38.88;24.98;;;8.80;99.90;;;;;;4862079;28;20104;-84
2024/03/22 05:45:55;;;;;;;40.60;25.95;;;8.80;99.90;;;;;;4910160;28;20637;-82
2024/03/22 05:48:20;;;;;;;41.80;26.50;;;8.80;99.90;;;;;;4878915;28;20117;-83
2024/03/22 05:50:46;;;;;;;43.33;26.80;;;8.80;99.90;;;;;;4885050;28;21494;-84
2024/03/22 05:53:11;;;;;;;37.50;26.05;;;8.90;99.90;;;;;;4913498;28;20034;-84
2024/03/22 05:55:38;;;;;;;45.95;27.88;;;8.90;99.90;;;;;;4870028;28;20026;-85
2024/03/22 05:58:04;;;;;;;43.45;26.63;;;8.90;99.90;;;;;;4819242;28;20030;-81
2024/03/22 06:00:30;;;;;;;39.35;25.48;;;8.90;99.90;;;;;;4934747;28;20620;-82
2024/03/22 06:02:56;;;;;;;39.88;26.55;;;9.00;99.90;;;;;;4878396;28;20022;-83
2024/03/22 06:05:21;;;;;;;43.15;27.38;;;8.90;99.90;;;;;;4936418;28;20041;-84
2024/03/22 06:07:47;;;;;;;46.55;27.65;;;8.90;99.90;;;;;;4882511;28;20379;-84
2024/03/22 06:10:13;;;;;;;44.63;27.35;;;9.00;99.90;;;;;;4873463;28;21434;-84
2024/03/22 06:12:38;;;;;;;42.92;27.23;;;9.00;99.90;;;;;;4923711;28;20041;-83
2024/03/22 06:15:05;;;;;;;41.20;27.25;;;9.00;99.90;;;;;;4871115;28;20052;-84
2024/03/22 06:17:33;;;;;;;48.42;29.40;;;9.00;99.90;;;;;;4884934;28;20041;-83
2024/03/22 06:19:58;;;;;;;45.47;28.60;;;9.00;99.90;;;;;;4940083;28;20093;-85
2024/03/22 06:22:24;;;;;;;49.42;29.58;;;9.10;99.90;;;;;;4876866;28;20667;-84
2024/03/22 06:24:49;;;;;;;45.80;28.85;;;9.10;99.90;;;;;;4934479;28;20034;-83
2024/03/22 06:27:15;;;;;;;44.75;29.38;;;9.10;99.90;;;;;;4879667;28;20121;-85
2024/03/22 06:29:40;;;;;;;46.75;28.73;;;9.10;99.90;;;;;;4865427;28;20366;-82
2024/03/22 06:32:06;;;;;;;49.25;29.27;;;9.10;99.90;;;;;;4936895;28;20077;-83
2024/03/22 06:34:31;;;;;;;48.65;29.45;;;9.10;99.90;;;;;;4886260;28;20109;-83
2024/03/22 06:36:57;;;;;;;47.35;30.00;;;9.20;99.90;;;;;;4902634;28;20034;-82
2024/03/22 06:39:23;;;;;;;52.05;30.35;;;9.30;99.90;;;;;;4917602;28;20536;-84
2024/03/22 06:41:48;;;;;;;45.13;29.25;;;9.30;99.90;;;;;;4894386;28;21143;-85
2024/03/22 06:44:14;;;;;;;44.03;28.70;;;9.30;99.90;;;;;;4937951;28;20022;-83
2024/03/22 06:46:39;;;;;;;46.75;30.02;;;9.30;99.90;;;;;;4877795;28;20027;-84
2024/03/22 06:49:05;;;;;;;47.88;29.95;;;9.40;99.90;;;;;;4881072;28;20030;-84
2024/03/22 06:51:31;;;;;;;49.75;31.08;;;9.40;99.90;;;;;;4934199;28;20062;-83
2024/03/22 06:53:56;;;;;;;50.00;29.35;;;9.40;99.90;;;;;;4881900;28;20046;-84
2024/03/22 06:56:22;;;;;;;49.75;30.13;;;9.40;99.90;;;;;;4936432;28;20035;-84
2024/03/22 06:58:47;;;;;;;45.50;27.67;;;9.50;99.90;;;;;;4860822;28;20023;-84
2024/03/22 07:01:13;;;;;;;44.72;29.25;;;9.50;99.90;;;;;;4891401;28;22249;-83
2024/03/22 07:03:38;;;;;;;47.38;29.73;;;9.50;99.90;;;;;;4932715;28;20518;-82
2024/03/22 07:06:07;;;;;;;49.47;29.17;;;9.50;99.90;;;;;;4889569;28;20054;-83
2024/03/22 07:08:33;;;;;;;46.28;30.98;;;9.50;99.90;;;;;;4880125;28;20034;-82
2024/03/22 07:10:59;;;;;;;44.47;28.17;;;9.50;99.90;;;;;;4934707;28;20085;-83
2024/03/22 07:13:25;;;;;;;49.00;32.30;;;9.60;99.90;;;;;;4878702;28;20026;-83
2024/03/22 07:15:50;;;;;;;48.63;30.52;;;9.60;99.90;;;;;;4940744;28;20042;-83
2024/03/22 07:18:16;;;;;;;45.55;29.75;;;9.60;99.90;;;;;;4882214;28;20022;-83
2024/03/22 07:20:42;;;;;;;53.25;31.85;;;9.70;99.90;;;;;;4869974;28;20102;-84
2024/03/22 07:23:08;;;;;;;50.15;30.42;;;9.70;99.90;;;;;;4932921;28;20414;-82
2024/03/22 07:25:34;;;;;;;45.95;31.92;;;9.80;99.90;;;;;;4872165;28;20058;-83
2024/03/22 07:27:59;;;;;;;45.75;30.25;;;9.80;99.90;;;;;;4902676;28;20458;-81
2024/03/22 07:30:25;;;;;;;51.03;31.08;;;9.90;99.90;;;;;;4946268;28;20038;-83
2024/03/22 07:32:51;;;;;;;47.92;29.35;;;9.90;99.90;;;;;;4886716;28;21620;-83
2024/03/22 07:35:16;;;;;;;47.90;30.75;;;9.90;99.90;;;;;;4933399;28;20167;-85
2024/03/22 07:37:42;;;;;;;49.33;29.45;;;9.90;99.90;;;;;;4870245;28;20034;-83
2024/03/22 07:40:08;;;;;;;53.55;31.88;;;9.90;99.90;;;;;;4938742;28;21107;-83
2024/03/22 07:42:33;;;;;;;54.85;30.42;;;9.90;99.90;;;;;;4967084;28;20134;-83
2024/03/22 07:44:59;;;;;;;49.30;28.55;;;10.00;99.90;;;;;;4937603;28;20040;-83
2024/03/22 07:47:25;;;;;;;47.63;28.83;;;10.00;99.90;;;;;;4957910;28;20046;-80
2024/03/22 07:49:51;;;;;;;44.40;28.60;;;10.00;99.90;;;;;;4949933;28;20029;-83
2024/03/22 07:52:17;;;;;;;46.60;29.48;;;10.10;99.90;;;;;;4941927;28;20781;-84
2024/03/22 07:54:42;;;;;;;45.88;29.13;;;10.10;99.90;;;;;;4969402;28;20034;-81
2024/03/22 07:57:08;;;;;;;47.90;30.60;;;10.10;99.90;;;;;;4940620;28;20058;-83
2024/03/22 07:59:34;;;;;;;47.35;28.73;;;10.10;99.90;;;;;;4944192;28;20094;-83
2024/03/22 08:01:59;;;;;;;50.70;29.60;;;10.10;99.90;;;;;;4968429;28;20022;-82
2024/03/22 08:04:25;;;;;;;46.08;29.88;;;10.10;99.90;;;;;;4938850;28;20036;-83
2024/03/22 08:06:51;;;;;;;46.22;31.35;;;10.20;99.90;;;;;;4967844;28;20039;-84
2024/03/22 08:09:18;;;;;;;44.35;28.48;;;10.20;99.90;;;;;;4943509;28;20061;-86
2024/03/22 08:11:44;;;;;;;48.42;29.83;;;10.20;99.90;;;;;;4956410;28;22118;-85
2024/03/22 08:14:09;;;;;;;43.58;28.40;;;10.20;99.90;;;;;;4967151;28;20510;-83
2024/03/22 08:16:35;;;;;;;46.88;29.15;;;10.20;99.90;;;;;;4941073;28;20025;-82
2024/03/22 08:19:00;;;;;;;43.45;28.88;;;10.20;99.90;;;;;;4947507;28;20034;-82
2024/03/22 08:21:26;;;;;;;45.30;28.20;;;10.20;99.90;;;;;;4966987;28;20026;-84
2024/03/22 08:23:52;;;;;;;49.25;28.58;;;10.20;99.90;;;;;;4943400;28;20049;-83
2024/03/22 08:26:18;;;;;;;43.95;29.58;;;10.20;99.90;;;;;;4968734;28;20034;-83
2024/03/22 08:28:47;;;;;;;46.45;29.67;;;10.20;99.90;;;;;;4942802;28;20049;-83
2024/03/22 08:31:13;;;;;;;49.35;31.02;;;10.10;99.90;;;;;;4942212;28;20498;-85
2024/03/22 08:33:38;;;;;;;45.42;29.17;;;10.10;99.90;;;;;;4967343;28;20137;-84
2024/03/22 08:36:04;;;;;;;50.17;31.13;;;10.10;99.90;;;;;;4946708;28;20507;-85
2024/03/22 08:38:30;;;;;;;50.45;30.17;;;10.10;99.90;;;;;;4946920;28;20026;-80
2024/03/22 08:40:55;;;;;;;50.58;30.52;;;10.10;99.90;;;;;;4958734;28;20027;-83
2024/03/22 08:43:22;;;;;;;49.78;31.65;;;10.10;99.90;;;;;;4941857;28;20068;-84
2024/03/22 08:45:48;;;;;;;53.28;30.75;;;10.10;99.90;;;;;;4969431;28;20023;-84
2024/03/22 08:48:13;;;;;;;47.17;30.58;;;10.10;99.90;;;;;;4944588;28;20089;-84
2024/03/22 08:50:42;;;;;;;43.83;31.13;;;10.10;99.90;;;;;;4936285;28;20031;-84
2024/03/22 08:53:07;;;;;;;52.97;29.55;;;10.10;99.90;;;;;;4966071;28;20041;-83
2024/03/22 08:55:33;;;;;;;49.10;30.27;;;10.10;99.90;;;;;;4937074;28;20048;-83
2024/03/22 08:57:58;;;;;;;50.00;31.45;;;10.10;99.90;;;;;;4976857;28;20075;-84
2024/03/22 09:00:24;;;;;;;48.97;29.42;;;10.10;99.90;;;;;;4960377;28;20026;-84
2024/03/22 09:02:49;;;;;;;51.58;31.83;;;10.10;99.90;;;;;;4936132;28;21491;-84
2024/03/22 09:05:15;;;;;;;46.72;29.08;;;10.20;99.90;;;;;;4978103;28;20026;-83
2024/03/22 09:07:41;;;;;;;52.78;31.13;;;10.10;99.90;;;;;;4966614;28;20029;-85
2024/03/22 09:10:07;;;;;;;48.30;28.92;;;10.10;99.90;;;;;;4967857;28;20066;-83
2024/03/22 09:12:32;;;;;;;50.90;29.67;;;10.10;99.90;;;;;;4964619;28;20050;-83
2024/03/22 09:14:58;;;;;;;48.45;30.13;;;10.20;99.90;;;;;;4951712;28;20054;-81
2024/03/22 09:17:23;;;;;;;47.15;28.50;;;10.20;99.90;;;;;;4967794;28;20027;-83
2024/03/22 09:19:49;;;;;;;54.40;32.97;;;10.20;99.90;;;;;;4976504;28;20030;-83
2024/03/22 09:22:15;;;;;;;46.88;29.95;;;10.20;99.90;;;;;;4951510;28;20462;-83
2024/03/22 09:24:40;;;;;;;46.13;28.90;;;10.20;99.90;;;;;;4976383;28;20031;-82
2024/03/22 09:27:08;;;;;;;45.15;29.27;;;10.20;99.90;;;;;;4963448;28;20022;-83
2024/03/22 09:29:34;;;;;;;47.65;30.63;;;10.20;99.90;;;;;;4968341;28;20018;-83
2024/03/22 09:32:00;;;;;;;48.05;30.60;;;10.20;99.90;;;;;;4930883;28;20039;-83
2024/03/22 09:34:25;;;;;;;50.65;31.20;;;10.20;99.90;;;;;;4964617;28;20090;-85
2024/03/22 09:36:51;;;;;;;49.45;32.13;;;10.20;99.90;;;;;;4975847;28;20026;-84
2024/03/22 09:39:17;;;;;;;47.95;29.83;;;10.20;99.90;;;;;;4949813;28;20150;-84
2024/03/22 09:41:43;;;;;;;44.72;29.67;;;10.20;99.90;;;;;;4952870;28;20414;-85
2024/03/22 09:44:14;;;;;;;48.13;30.02;;;10.20;99.90;;;;;;4926773;28;20038;-85
2024/03/22 09:46:42;;;;;;;42.58;28.35;;;10.20;99.90;;;;;;4943325;28;20023;-84
2024/03/22 09:49:11;;;;;;;52.00;29.58;;;10.20;99.90;;;;;;4940932;28;20422;-84
2024/03/22 09:51:39;;;;;;;46.20;28.50;;;10.20;99.90;;;;;;4965913;28;20029;-85
2024/03/22 09:54:05;;;;;;;48.10;29.70;;;10.20;99.90;;;;;;4939165;28;20030;-84
2024/03/22 09:56:31;;;;;;;44.15;28.20;;;10.20;99.90;;;;;;4930534;28;20034;-82
2024/03/22 09:59:00;;;;;;;51.08;29.95;;;10.20;99.90;;;;;;4926167;28;20030;-83
2024/03/22 10:01:26;;;;;;;45.97;26.65;;;10.20;99.90;;;;;;4938616;28;21536;-86
2024/03/22 10:03:52;;;;;;;40.15;25.98;;;10.10;99.90;;;;;;4924274;28;20023;-86
2024/03/22 10:06:18;;;;;;;44.85;26.40;;;10.10;99.90;;;;;;4938808;28;20085;-86
2024/03/22 10:08:44;;;;;;;43.88;27.17;;;10.10;99.90;;;;;;4898808;28;20038;-85
2024/03/22 10:11:11;;;;;;;40.25;24.70;;;10.10;99.90;;;;;;4900234;28;20118;-86
2024/03/22 10:13:36;;;;;;;41.92;24.92;;;10.10;99.90;;;;;;4933607;28;20038;-85
2024/03/22 10:16:03;;;;;;;41.08;26.05;;;10.20;99.90;;;;;;4906334;28;20019;-84
2024/03/22 10:18:34;;;;;;;41.58;24.98;;;10.20;99.90;;;;;;4912326;28;20081;-83
2024/03/22 10:21:04;;;;;;;41.65;24.35;;;10.20;99.90;;;;;;4958898;28;20025;-85
2024/03/22 10:23:31;;;;;;;37.78;23.30;;;10.20;99.90;;;;;;4893426;28;20098;-85
2024/03/22 10:26:03;;;;;;;35.72;23.52;;;10.10;99.90;;;;;;4927518;28;20386;-83
2024/03/22 10:28:29;;;;;;;37.17;23.38;;;10.10;99.90;;;;;;4890553;28;21480;-86
2024/03/22 10:30:54;;;;;;;38.13;23.23;;;10.10;99.90;;;;;;4897028;28;20042;-86
2024/03/22 10:33:23;;;;;;;33.05;21.73;;;10.10;99.90;;;;;;4923864;28;20046;-85
2024/03/22 10:35:53;;;;;;;31.92;18.67;;;10.10;99.90;;;;;;4853398;28;20096;-86
2024/03/22 10:38:20;;;;;;;31.92;20.45;;;10.10;99.90;;;;;;4834382;28;21914;-85
2024/03/22 10:40:46;;;;;;;35.92;19.73;;;10.10;99.90;;;;;;4922479;28;20037;-85
2024/03/22 10:43:16;;;;;;;31.40;19.30;;;10.10;99.90;;;;;;4838075;28;20036;-83
2024/03/22 10:45:42;;;;;;;30.13;18.50;;;10.10;99.90;;;;;;4896221;28;20026;-85
2024/03/22 10:48:12;;;;;;;32.70;18.00;;;10.10;99.90;;;;;;4918944;28;20093;-83
2024/03/22 10:50:42;;;;;;;32.30;17.33;;;10.10;99.90;;;;;;4889364;28;20030;-85
2024/03/22 10:53:22;;;;;;;23.25;16.45;;;10.10;99.90;;;;;;4865267;28;20100;-84
2024/03/22 10:55:49;;;;;;;22.90;16.35;;;10.10;99.90;;;;;;4945699;28;20027;-85
2024/03/22 10:58:21;;;;;;;25.42;16.17;;;10.10;99.90;;;;;;4900289;28;20033;-85
2024/03/22 11:00:46;;;;;;;22.55;15.82;;;10.10;99.90;;;;;;4931372;28;20781;-85
2024/03/22 11:03:15;;;;;;;23.33;15.13;;;10.00;99.90;;;;;;4960841;28;20027;-84
2024/03/22 11:05:53;;;;;;;24.55;14.02;;;10.00;99.90;;;;;;4927573;28;20133;-85
2024/03/22 11:08:31;;;;;;;20.30;13.32;;;10.00;99.90;;;;;;4921140;28;21079;-84
2024/03/22 11:11:09;;;;;;;18.60;13.45;;;10.00;99.90;;;;;;4936664;28;20099;-81
2024/03/22 11:13:36;;;;;;;21.73;14.40;;;10.00;99.90;;;;;;4955525;28;20061;-84
2024/03/22 11:16:02;;;;;;;21.52;14.55;;;10.00;99.90;;;;;;4932514;28;20058;-82
2024/03/22 11:18:28;;;;;;;17.45;12.25;;;10.00;99.90;;;;;;4942421;28;20058;-82
2024/03/22 11:20:54;;;;;;;19.42;12.68;;;10.00;99.90;;;;;;4926454;28;20022;-84
2024/03/22 11:23:20;;;;;;;19.73;12.13;;;10.00;99.90;;;;;;4924171;28;21467;-82
2024/03/22 11:25:46;;;;;;;16.55;11.27;;;10.00;99.90;;;;;;4943871;28;20521;-84
2024/03/22 11:28:14;;;;;;;15.63;9.80;;;10.00;99.90;;;;;;4927577;28;20052;-82
2024/03/22 11:30:40;;;;;;;12.65;9.13;;;10.00;99.90;;;;;;4937763;28;20171;-84
2024/03/22 11:33:06;;;;;;;12.55;8.90;;;10.00;99.90;;;;;;4947091;28;20026;-83
2024/03/22 11:35:54;;;;;;;12.90;8.63;;;9.90;99.90;;;;;;4922603;28;20034;-83
2024/03/22 11:38:22;;;;;;;13.85;8.85;;;9.90;99.90;;;;;;4929162;28;22207;-85
2024/03/22 11:40:48;;;;;;;9.48;7.85;;;9.90;99.90;;;;;;4965097;28;20507;-84
2024/03/22 11:43:16;;;;;;;9.15;7.43;;;9.90;99.90;;;;;;4925988;28;20042;-83
2024/03/22 11:45:43;;;;;;;11.55;8.63;;;10.00;99.90;;;;;;4946922;28;20034;-84
2024/03/22 11:48:09;;;;;;;11.38;7.53;;;10.00;99.90;;;;;;4966104;28;20018;-84
2024/03/22 11:50:37;;;;;;;10.20;7.70;;;10.00;99.90;;;;;;4947931;28;20030;-84
2024/03/22 11:53:05;;;;;;;10.73;7.20;;;10.00;99.90;;;;;;4939314;28;20042;-83
2024/03/22 11:55:31;;;;;;;8.38;6.50;;;10.00;99.90;;;;;;4965956;28;20054;-84
2024/03/22 11:57:58;;;;;;;8.68;6.55;;;10.00;99.90;;;;;;4947872;28;20026;-83
2024/03/22 12:00:33;;;;;;;8.77;6.50;;;10.00;99.90;;;;;;4960024;28;20037;-84
2024/03/22 12:02:59;;;;;;;8.90;6.97;;;10.00;99.90;;;;;;4948115;28;20061;-83
2024/03/22 12:05:26;;;;;;;8.48;6.18;;;10.00;99.90;;;;;;4917780;28;20776;-85
2024/03/22 12:07:52;;;;;;;8.30;6.25;;;10.00;99.90;;;;;;4925943;28;20022;-85
2024/03/22 12:10:18;;;;;;;9.13;6.03;;;10.00;99.90;;;;;;4942516;28;20486;-84
2024/03/22 12:12:43;;;;;;;6.32;4.88;;;10.00;99.90;;;;;;4943736;28;20026;-85
2024/03/22 12:15:09;;;;;;;6.68;5.45;;;10.00;99.90;;;;;;4942396;28;20014;-84
2024/03/22 12:17:37;;;;;;;8.00;5.47;;;10.00;99.90;;;;;;4942887;28;20033;-84
2024/03/22 12:20:08;;;;;;;5.80;4.38;;;10.00;99.90;;;;;;4952320;28;20050;-82
2024/03/22 12:22:34;;;;;;;4.18;3.60;;;9.90;99.90;;;;;;4972430;28;20027;-83
2024/03/22 12:25:00;;;;;;;4.75;3.97;;;9.90;99.90;;;;;;4943029;28;20018;-84
2024/03/22 12:27:26;;;;;;;3.25;2.85;;;9.80;99.90;;;;;;4954570;28;20030;-82
2024/03/22 12:29:52;;;;;;;4.47;2.45;;;9.70;99.90;;;;;;4897312;28;20085;-84